sensor_id;sensor_type;location;lat;lon;timestamp;temperature;humidity
5419;DHT22;2732;52.092;11.556;2023-03-23T00:02:40;10.90;99.90
5419;DHT22;2732;52.092;11.556;2023-03-23T00:07:41;10.90;99.90
5419;DHT22;2732;52.092;11.556;2023-03-23T00:12:45;11.00;99.90
5419;DHT22;2732;52.092;11.556;2023-03-23T00:17:51;11.00;99.90
5419;DHT22;2732;52.092;11.556;2023-03-23T00:22:51;11.00;99.90
5419;DHT22;2732;52.092;11.556;2023-03-23T00:27:52;11.00;99.90
5419;DHT22;2732;52.092;11.556;2023-03-23T00:32:53;10.90;99.90
5419;DHT22;2732;52.092;11.556;2023-03-23T00:37:53;10.90;99.90
5419;DHT22;2732;52.092;11.556;2023-03-23T00:42:55;11.00;99.90
5419;DHT22;2732;52.092;11.556;2023-03-23T00:47:56;11.00;99.90
5419;DHT22;2732;52.092;11.556;2023-03-23T00:53:02;11.00;99.90
5419;DHT22;2732;52.092;11.556;2023-03-23T00:58:02;11.10;99.90
5419;DHT22;2732;52.092;11.556;2023-03-23T01:03:04;11.10;99.90
5419;DHT22;2732;52.092;11.556;2023-03-23T01:08:06;11.10;99.90
5419;DHT22;2732;52.092;11.556;2023-03-23T01:13:07;11.10;99.90
5419;DHT22;2732;52.092;11.556;2023-03-23T01:18:09;11.10;99.90
5419;DHT22;2732;52.092;11.556;2023-03-23T01:23:11;11.10;99.90
5419;DHT22;2732;52.092;11.556;2023-03-23T01:28:12;11.10;99.90
5419;DHT22;2732;52.092;11.556;2023-03-23T01:33:13;11.10;99.90
5419;DHT22;2732;52.092;11.556;2023-03-23T01:38:13;11.10;99.90
5419;DHT22;2732;52.092;11.556;2023-03-23T01:43:15;11.10;99.90
5419;DHT22;2732;52.092;11.556;2023-03-23T01:48:25;11.10;99.90
5419;DHT22;2732;52.092;11.556;2023-03-23T01:53:47;11.10;99.90
5419;DHT22;2732;52.092;11.556;2023-03-23T01:58:52;11.10;99.90
5419;DHT22;2732;52.092;11.556;2023-03-23T02:03:55;11.10;99.90
5419;DHT22;2732;52.092;11.556;2023-03-23T02:08:57;11.20;99.90
5419;DHT22;2732;52.092;11.556;2023-03-23T02:13:58;11.10;99.90
5419;DHT22;2732;52.092;11.556;2023-03-23T02:20:07;11.10;99.90
5419;DHT22;2732;52.092;11.556;2023-03-23T02:24:56;11.10;99.90
5419;DHT22;2732;52.092;11.556;2023-03-23T02:35:35;11.10;99.90
5419;DHT22;2732;52.092;11.556;2023-03-23T02:40:47;11.00;99.90
5419;DHT22;2732;52.092;11.556;2023-03-23T02:45:50;11.00;99.90
5419;DHT22;2732;52.092;11.556;2023-03-23T02:50:53;11.00;99.90
5419;DHT22;2732;52.092;11.556;2023-03-23T02:55:55;11.00;99.90
5419;DHT22;2732;52.092;11.556;2023-03-23T03:00:57;11.00;99.90
5419;DHT22;2732;52.092;11.556;2023-03-23T03:06:11;10.90;99.90
5419;DHT22;2732;52.092;11.556;2023-03-23T03:11:21;10.90;99.90
5419;DHT22;2732;52.092;11.556;2023-03-23T03:21:54;10.90;99.90
5419;DHT22;2732;52.092;11.556;2023-03-23T03:27:00;10.90;99.90
5419;DHT22;2732;52.092;11.556;2023-03-23T03:32:03;10.90;99.90
5419;DHT22;2732;52.092;11.556;2023-03-23T03:37:06;10.90;99.90
5419;DHT22;2732;52.092;11.556;2023-03-23T03:42:07;11.00;99.90
5419;DHT22;2732;52.092;11.556;2023-03-23T03:47:07;11.00;99.90
5419;DHT22;2732;52.092;11.556;2023-03-23T03:52:08;11.10;99.90
5419;DHT22;2732;52.092;11.556;2023-03-23T03:57:10;11.10;99.90
5419;DHT22;2732;52.092;11.556;2023-03-23T04:02:12;11.20;99.90
5419;DHT22;2732;52.092;11.556;2023-03-23T04:07:16;11.20;99.90
5419;DHT22;2732;52.092;11.556;2023-03-23T04:12:17;11.20;99.90
5419;DHT22;2732;52.092;11.556;2023-03-23T04:17:18;11.20;99.90
5419;DHT22;2732;52.092;11.556;2023-03-23T04:22:20;11.20;99.90
5419;DHT22;2732;52.092;11.556;2023-03-23T04:27:25;11.10;99.90
5419;DHT22;2732;52.092;11.556;2023-03-23T04:32:28;11.10;99.90
5419;DHT22;2732;52.092;11.556;2023-03-23T04:37:29;11.10;99.90
5419;DHT22;2732;52.092;11.556;2023-03-23T04:42:31;11.10;99.90
5419;DHT22;2732;52.092;11.556;2023-03-23T04:47:33;11.10;99.90
5419;DHT22;2732;52.092;11.556;2023-03-23T04:52:40;11.10;99.90
5419;DHT22;2732;52.092;11.556;2023-03-23T04:57:45;11.10;99.90
5419;DHT22;2732;52.092;11.556;2023-03-23T05:02:47;11.00;99.90
5419;DHT22;2732;52.092;11.556;2023-03-23T05:07:51;11.00;99.90
5419;DHT22;2732;52.092;11.556;2023-03-23T05:12:53;11.00;99.90
5419;DHT22;2732;52.092;11.556;2023-03-23T05:17:54;11.00;99.90
5419;DHT22;2732;52.092;11.556;2023-03-23T05:22:56;11.00;99.90
5419;DHT22;2732;52.092;11.556;2023-03-23T05:27:58;11.00;99.90
5419;DHT22;2732;52.092;11.556;2023-03-23T05:32:59;10.90;99.90
5419;DHT22;2732;52.092;11.556;2023-03-23T05:38:00;10.90;99.90
5419;DHT22;2732;52.092;11.556;2023-03-23T05:43:02;10.90;99.90
5419;DHT22;2732;52.092;11.556;2023-03-23T05:48:02;10.90;99.90
5419;DHT22;2732;52.092;11.556;2023-03-23T05:53:03;10.90;99.90
5419;DHT22;2732;52.092;11.556;2023-03-23T05:58:04;10.90;99.90
5419;DHT22;2732;52.092;11.556;2023-03-23T06:03:05;10.90;99.90
5419;DHT22;2732;52.092;11.556;2023-03-23T06:08:06;10.90;99.90
5419;DHT22;2732;52.092;11.556;2023-03-23T06:13:07;10.90;99.90
5419;DHT22;2732;52.092;11.556;2023-03-23T06:18:08;11.00;99.90
5419;DHT22;2732;52.092;11.556;2023-03-23T06:23:08;11.00;99.90
5419;DHT22;2732;52.092;11.556;2023-03-23T06:28:10;11.00;99.90
5419;DHT22;2732;52.092;11.556;2023-03-23T06:33:11;11.00;99.90
5419;DHT22;2732;52.092;11.556;2023-03-23T06:38:12;11.10;99.90
5419;DHT22;2732;52.092;11.556;2023-03-23T06:43:13;11.10;99.90
5419;DHT22;2732;52.092;11.556;2023-03-23T06:48:14;11.20;99.90
5419;DHT22;2732;52.092;11.556;2023-03-23T06:53:14;11.30;99.90
5419;DHT22;2732;52.092;11.556;2023-03-23T06:58:16;11.30;99.90
5419;DHT22;2732;52.092;11.556;2023-03-23T07:03:17;11.30;99.90
5419;DHT22;2732;52.092;11.556;2023-03-23T07:08:18;11.40;99.90
5419;DHT22;2732;52.092;11.556;2023-03-23T07:13:19;11.50;99.90
5419;DHT22;2732;52.092;11.556;2023-03-23T07:18:20;11.40;99.90
5419;DHT22;2732;52.092;11.556;2023-03-23T07:23:21;11.50;99.90
5419;DHT22;2732;52.092;11.556;2023-03-23T07:28:22;11.50;99.90
5419;DHT22;2732;52.092;11.556;2023-03-23T07:33:22;11.50;99.90
5419;DHT22;2732;52.092;11.556;2023-03-23T07:38:23;11.50;99.90
5419;DHT22;2732;52.092;11.556;2023-03-23T07:43:25;11.50;99.90
5419;DHT22;2732;52.092;11.556;2023-03-23T07:48:26;11.70;99.90
5419;DHT22;2732;52.092;11.556;2023-03-23T07:53:27;11.80;99.90
5419;DHT22;2732;52.092;11.556;2023-03-23T07:58:28;12.00;99.90
5419;DHT22;2732;52.092;11.556;2023-03-23T08:03:29;12.10;99.90
5419;DHT22;2732;52.092;11.556;2023-03-23T08:08:29;12.10;99.90
5419;DHT22;2732;52.092;11.556;2023-03-23T08:13:31;12.10;99.90
5419;DHT22;2732;52.092;11.556;2023-03-23T08:18:33;12.10;99.90
5419;DHT22;2732;52.092;11.556;2023-03-23T08:23:36;12.20;99.90
5419;DHT22;2732;52.092;11.556;2023-03-23T08:28:37;12.20;99.90
5419;DHT22;2732;52.092;11.556;2023-03-23T08:33:39;12.30;99.90
5419;DHT22;2732;52.092;11.556;2023-03-23T08:38:41;12.40;99.90
5419;DHT22;2732;52.092;11.556;2023-03-23T08:43:42;12.60;99.90
5419;DHT22;2732;52.092;11.556;2023-03-23T08:48:43;12.80;99.90
5419;DHT22;2732;52.092;11.556;2023-03-23T08:53:45;13.00;99.90
5419;DHT22;2732;52.092;11.556;2023-03-23T08:58:46;13.10;99.90
5419;DHT22;2732;52.092;11.556;2023-03-23T09:03:47;13.10;99.90
5419;DHT22;2732;52.092;11.556;2023-03-23T09:08:48;13.30;99.90
5419;DHT22;2732;52.092;11.556;2023-03-23T09:13:51;13.40;99.90
5419;DHT22;2732;52.092;11.556;2023-03-23T09:18:53;13.50;99.90
5419;DHT22;2732;52.092;11.556;2023-03-23T09:23:55;13.60;99.90
5419;DHT22;2732;52.092;11.556;2023-03-23T09:28:58;13.80;99.90
5419;DHT22;2732;52.092;11.556;2023-03-23T09:33:59;14.00;99.90
5419;DHT22;2732;52.092;11.556;2023-03-23T09:39:01;14.20;99.90
5419;DHT22;2732;52.092;11.556;2023-03-23T09:44:24;14.40;99.90
5419;DHT22;2732;52.092;11.556;2023-03-23T09:49:43;14.60;99.90
5419;DHT22;2732;52.092;11.556;2023-03-23T09:54:52;14.60;99.90
5419;DHT22;2732;52.092;11.556;2023-03-23T09:59:56;14.80;99.90
5419;DHT22;2732;52.092;11.556;2023-03-23T10:05:34;14.90;99.90
5419;DHT22;2732;52.092;11.556;2023-03-23T10:11:02;15.10;99.90
5419;DHT22;2732;52.092;11.556;2023-03-23T10:16:09;15.30;99.90
5419;DHT22;2732;52.092;11.556;2023-03-23T10:21:21;15.40;99.90
5419;DHT22;2732;52.092;11.556;2023-03-23T10:31:43;15.80;99.90
5419;DHT22;2732;52.092;11.556;2023-03-23T10:41:53;16.00;99.90
5419;DHT22;2732;52.092;11.556;2023-03-23T10:47:07;16.20;99.90
5419;DHT22;2732;52.092;11.556;2023-03-23T10:52:33;16.30;99.90
5419;DHT22;2732;52.092;11.556;2023-03-23T10:57:40;16.50;99.90
5419;DHT22;2732;52.092;11.556;2023-03-23T11:08:19;16.90;99.90
5419;DHT22;2732;52.092;11.556;2023-03-23T11:13:26;17.10;99.90
5419;DHT22;2732;52.092;11.556;2023-03-23T11:23:47;17.10;99.90
5419;DHT22;2732;52.092;11.556;2023-03-23T11:34:32;17.20;99.90
5419;DHT22;2732;52.092;11.556;2023-03-23T11:45:34;17.30;99.90
5419;DHT22;2732;52.092;11.556;2023-03-23T11:50:48;17.40;99.90
5419;DHT22;2732;52.092;11.556;2023-03-23T12:07:26;17.50;99.90
5419;DHT22;2732;52.092;11.556;2023-03-23T12:12:54;17.50;99.90
5419;DHT22;2732;52.092;11.556;2023-03-23T12:18:18;17.40;99.90
5419;DHT22;2732;52.092;11.556;2023-03-23T12:28:50;18.40;99.90
5419;DHT22;2732;52.092;11.556;2023-03-23T12:39:49;19.40;99.90
5419;DHT22;2732;52.092;11.556;2023-03-23T12:45:05;19.50;99.90
5419;DHT22;2732;52.092;11.556;2023-03-23T12:50:27;19.40;99.90
5419;DHT22;2732;52.092;11.556;2023-03-23T12:55:46;19.30;99.90
5419;DHT22;2732;52.092;11.556;2023-03-23T13:00:56;19.30;99.90
5419;DHT22;2732;52.092;11.556;2023-03-23T13:11:19;20.00;99.90
5419;DHT22;2732;52.092;11.556;2023-03-23T13:22:17;20.20;99.90
5419;DHT22;2732;52.092;11.556;2023-03-23T13:27:26;20.50;99.90
5419;DHT22;2732;52.092;11.556;2023-03-23T13:32:39;20.60;99.50
5419;DHT22;2732;52.092;11.556;2023-03-23T13:37:45;20.50;99.50
5419;DHT22;2732;52.092;11.556;2023-03-23T13:42:52;20.20;99.30
5419;DHT22;2732;52.092;11.556;2023-03-23T13:48:18;20.00;99.90
5419;DHT22;2732;52.092;11.556;2023-03-23T13:53:53;20.00;99.10
5419;DHT22;2732;52.092;11.556;2023-03-23T13:59:06;20.20;99.10
5419;DHT22;2732;52.092;11.556;2023-03-23T14:04:17;20.70;97.80
5419;DHT22;2732;52.092;11.556;2023-03-23T14:09:32;21.10;98.20
5419;DHT22;2732;52.092;11.556;2023-03-23T14:14:49;21.10;97.50
5419;DHT22;2732;52.092;11.556;2023-03-23T14:19:55;21.00;97.10
5419;DHT22;2732;52.092;11.556;2023-03-23T14:25:16;20.90;96.60
5419;DHT22;2732;52.092;11.556;2023-03-23T14:30:24;20.60;96.80
5419;DHT22;2732;52.092;11.556;2023-03-23T14:35:28;20.30;98.30
5419;DHT22;2732;52.092;11.556;2023-03-23T14:40:32;20.50;97.70
5419;DHT22;2732;52.092;11.556;2023-03-23T14:45:34;20.40;97.90
5419;DHT22;2732;52.092;11.556;2023-03-23T14:50:39;20.00;98.10
5419;DHT22;2732;52.092;11.556;2023-03-23T14:55:43;20.00;98.80
5419;DHT22;2732;52.092;11.556;2023-03-23T15:00:49;20.00;97.60
5419;DHT22;2732;52.092;11.556;2023-03-23T15:06:03;20.00;97.80
5419;DHT22;2732;52.092;11.556;2023-03-23T15:11:33;20.20;98.40
5419;DHT22;2732;52.092;11.556;2023-03-23T15:16:36;20.10;98.20
5419;DHT22;2732;52.092;11.556;2023-03-23T15:21:51;19.70;98.60
5419;DHT22;2732;52.092;11.556;2023-03-23T15:27:14;19.40;99.00
5419;DHT22;2732;52.092;11.556;2023-03-23T15:32:27;19.10;99.30
5419;DHT22;2732;52.092;11.556;2023-03-23T15:37:34;18.70;99.50
5419;DHT22;2732;52.092;11.556;2023-03-23T15:42:35;18.40;99.70
5419;DHT22;2732;52.092;11.556;2023-03-23T15:52:42;17.90;99.90
5419;DHT22;2732;52.092;11.556;2023-03-23T15:57:44;17.70;99.90
5419;DHT22;2732;52.092;11.556;2023-03-23T16:02:53;17.60;99.90
5419;DHT22;2732;52.092;11.556;2023-03-23T16:07:56;17.30;99.90
5419;DHT22;2732;52.092;11.556;2023-03-23T16:12:57;17.20;99.90
5419;DHT22;2732;52.092;11.556;2023-03-23T16:17:58;17.00;99.90
5419;DHT22;2732;52.092;11.556;2023-03-23T16:22:58;16.80;99.90
5419;DHT22;2732;52.092;11.556;2023-03-23T16:28:00;16.50;99.90
5419;DHT22;2732;52.092;11.556;2023-03-23T16:33:01;16.30;99.90
5419;DHT22;2732;52.092;11.556;2023-03-23T16:38:02;16.10;99.90
5419;DHT22;2732;52.092;11.556;2023-03-23T16:43:03;15.90;99.90
5419;DHT22;2732;52.092;11.556;2023-03-23T16:48:04;15.80;99.90
5419;DHT22;2732;52.092;11.556;2023-03-23T16:53:06;15.70;99.90
5419;DHT22;2732;52.092;11.556;2023-03-23T16:58:07;15.50;99.90
5419;DHT22;2732;52.092;11.556;2023-03-23T17:03:08;15.40;99.90
5419;DHT22;2732;52.092;11.556;2023-03-23T17:08:09;15.20;99.90
5419;DHT22;2732;52.092;11.556;2023-03-23T17:13:11;15.00;99.90
5419;DHT22;2732;52.092;11.556;2023-03-23T17:18:13;14.90;99.90
5419;DHT22;2732;52.092;11.556;2023-03-23T17:23:14;14.80;99.90
5419;DHT22;2732;52.092;11.556;2023-03-23T17:28:16;14.60;99.90
5419;DHT22;2732;52.092;11.556;2023-03-23T17:33:16;14.60;99.90
5419;DHT22;2732;52.092;11.556;2023-03-23T17:38:17;14.50;99.90
5419;DHT22;2732;52.092;11.556;2023-03-23T17:43:18;14.30;99.90
5419;DHT22;2732;52.092;11.556;2023-03-23T17:48:18;14.20;99.90
5419;DHT22;2732;52.092;11.556;2023-03-23T17:53:19;14.10;99.90
5419;DHT22;2732;52.092;11.556;2023-03-23T17:58:20;13.90;99.90
5419;DHT22;2732;52.092;11.556;2023-03-23T18:03:22;13.80;99.90
5419;DHT22;2732;52.092;11.556;2023-03-23T18:08:23;13.70;99.90
5419;DHT22;2732;52.092;11.556;2023-03-23T18:13:27;13.50;99.90
5419;DHT22;2732;52.092;11.556;2023-03-23T18:18:29;13.40;99.90
5419;DHT22;2732;52.092;11.556;2023-03-23T18:23:31;13.40;99.90
5419;DHT22;2732;52.092;11.556;2023-03-23T18:28:34;13.30;99.90
5419;DHT22;2732;52.092;11.556;2023-03-23T18:33:36;13.20;99.90
5419;DHT22;2732;52.092;11.556;2023-03-23T18:38:37;13.20;99.90
5419;DHT22;2732;52.092;11.556;2023-03-23T18:43:38;13.10;99.90
5419;DHT22;2732;52.092;11.556;2023-03-23T18:48:39;13.10;99.90
5419;DHT22;2732;52.092;11.556;2023-03-23T18:53:40;13.00;99.90
5419;DHT22;2732;52.092;11.556;2023-03-23T18:58:40;13.00;99.90
5419;DHT22;2732;52.092;11.556;2023-03-23T19:03:41;12.90;99.90
5419;DHT22;2732;52.092;11.556;2023-03-23T19:08:42;12.80;99.90
5419;DHT22;2732;52.092;11.556;2023-03-23T19:13:43;12.80;99.90
5419;DHT22;2732;52.092;11.556;2023-03-23T19:18:44;12.80;99.90
5419;DHT22;2732;52.092;11.556;2023-03-23T19:23:45;12.70;99.90
5419;DHT22;2732;52.092;11.556;2023-03-23T19:28:47;12.70;99.90
5419;DHT22;2732;52.092;11.556;2023-03-23T19:33:47;12.60;99.90
5419;DHT22;2732;52.092;11.556;2023-03-23T19:38:48;12.50;99.90
5419;DHT22;2732;52.092;11.556;2023-03-23T19:43:50;12.50;99.90
5419;DHT22;2732;52.092;11.556;2023-03-23T19:48:51;12.40;99.90
5419;DHT22;2732;52.092;11.556;2023-03-23T19:53:57;12.30;99.90
5419;DHT22;2732;52.092;11.556;2023-03-23T19:58:58;12.30;99.90
5419;DHT22;2732;52.092;11.556;2023-03-23T20:03:59;12.20;99.90
5419;DHT22;2732;52.092;11.556;2023-03-23T20:09:04;12.20;99.90
5419;DHT22;2732;52.092;11.556;2023-03-23T20:14:06;12.10;99.90
5419;DHT22;2732;52.092;11.556;2023-03-23T20:19:07;12.00;99.90
5419;DHT22;2732;52.092;11.556;2023-03-23T20:24:07;11.90;99.90
5419;DHT22;2732;52.092;11.556;2023-03-23T20:29:09;11.90;99.90
5419;DHT22;2732;52.092;11.556;2023-03-23T20:34:13;11.90;99.90
5419;DHT22;2732;52.092;11.556;2023-03-23T20:39:29;11.90;99.90
5419;DHT22;2732;52.092;11.556;2023-03-23T20:44:31;11.90;99.90
5419;DHT22;2732;52.092;11.556;2023-03-23T20:49:35;11.90;99.90
5419;DHT22;2732;52.092;11.556;2023-03-23T20:54:37;11.90;99.90
5419;DHT22;2732;52.092;11.556;2023-03-23T20:59:39;11.90;99.90
5419;DHT22;2732;52.092;11.556;2023-03-23T21:04:41;11.80;99.90
5419;DHT22;2732;52.092;11.556;2023-03-23T21:09:44;11.80;99.90
5419;DHT22;2732;52.092;11.556;2023-03-23T21:14:45;11.80;99.90
5419;DHT22;2732;52.092;11.556;2023-03-23T21:19:46;11.70;99.90
5419;DHT22;2732;52.092;11.556;2023-03-23T21:24:47;11.70;99.90
5419;DHT22;2732;52.092;11.556;2023-03-23T21:29:49;11.70;99.90
5419;DHT22;2732;52.092;11.556;2023-03-23T21:34:50;11.60;99.90
5419;DHT22;2732;52.092;11.556;2023-03-23T21:39:51;11.50;99.90
5419;DHT22;2732;52.092;11.556;2023-03-23T21:44:52;11.50;99.90
5419;DHT22;2732;52.092;11.556;2023-03-23T21:49:53;11.50;99.90
5419;DHT22;2732;52.092;11.556;2023-03-23T21:54:56;11.40;99.90
5419;DHT22;2732;52.092;11.556;2023-03-23T21:59:58;11.40;99.90
5419;DHT22;2732;52.092;11.556;2023-03-23T22:04:59;11.30;99.90
5419;DHT22;2732;52.092;11.556;2023-03-23T22:10:00;11.30;99.90
5419;DHT22;2732;52.092;11.556;2023-03-23T22:15:02;11.20;99.90
5419;DHT22;2732;52.092;11.556;2023-03-23T22:20:11;11.20;99.90
5419;DHT22;2732;52.092;11.556;2023-03-23T22:25:13;11.10;99.90
5419;DHT22;2732;52.092;11.556;2023-03-23T22:30:14;11.10;99.90
5419;DHT22;2732;52.092;11.556;2023-03-23T22:35:15;11.00;99.90
5419;DHT22;2732;52.092;11.556;2023-03-23T22:40:16;10.90;99.90
5419;DHT22;2732;52.092;11.556;2023-03-23T22:45:17;10.80;99.90
5419;DHT22;2732;52.092;11.556;2023-03-23T22:50:18;10.70;99.90
5419;DHT22;2732;52.092;11.556;2023-03-23T22:55:20;10.60;99.90
5419;DHT22;2732;52.092;11.556;2023-03-23T23:00:21;10.60;99.90
5419;DHT22;2732;52.092;11.556;2023-03-23T23:05:21;10.50;99.90
5419;DHT22;2732;52.092;11.556;2023-03-23T23:10:22;10.50;99.90
5419;DHT22;2732;52.092;11.556;2023-03-23T23:15:23;10.50;99.90
5419;DHT22;2732;52.092;11.556;2023-03-23T23:20:23;10.50;99.90
5419;DHT22;2732;52.092;11.556;2023-03-23T23:25:24;10.40;99.90
5419;DHT22;2732;52.092;11.556;2023-03-23T23:30:26;10.40;99.90
5419;DHT22;2732;52.092;11.556;2023-03-23T23:35:27;10.40;99.90
5419;DHT22;2732;52.092;11.556;2023-03-23T23:40:28;10.40;99.90
5419;DHT22;2732;52.092;11.556;2023-03-23T23:45:29;10.40;99.90
5419;DHT22;2732;52.092;11.556;2023-03-23T23:50:30;10.40;99.90
5419;DHT22;2732;52.092;11.556;2023-03-23T23:55:32;10.40;99.90
